Nuray Senkaya — TCSN6 — position and weather

sailwx.info

Track history (hours):
 
Tides and Currents Weather Stations Pressure Air Temp Water Temp Dewpoint Dewpoint Depression Visibility Wind Speed Wind Dir Waves Ship Positions

Nuray Senkaya

Last reported at 2018-Aug-11 23:27 UTC. Time now 2018-Aug-19 15:20 UTC.
Position N 31°59' E 034°26'.

Length 109 m; draft 7.4 m.

Type: Cargo ship. MMSI: 271000926.

Date/timePositionNaut miles runAvg speedWind from/ knotsBaromVisibWave heightAir tempDewpointWater temp
2018-Aug-11 23:27N 31°59' E 034°26'3 7.9
2018-Aug-11 23:00N 32°03' E 034°25'4 8.0
2018-Aug-11 22:30N 32°06' E 034°23'6 8.0
2018-Aug-11 21:46N 32°12' E 034°22'2 8.3
2018-Aug-11 21:28N 32°14' E 034°22'17 8.5
2018-Aug-11 19:28N 32°31' E 034°24'6 8.2
2018-Aug-11 18:47N 32°36' E 034°27'2 8.5
2018-Aug-11 18:30N 32°39' E 034°27'4 8.5
2018-Aug-11 17:59N 32°43' E 034°27'4 8.5
2018-Aug-11 17:30N 32°47' E 034°27'4 8.3
2018-Aug-11 16:58N 32°52' E 034°28'7 8.5
2018-Aug-11 16:05N 32°59' E 034°28'1 8.5
2018-Aug-11 16:00N 32°60' E 034°28'4 8.3
2018-Aug-11 15:29N 33°04' E 034°28'4 8.1
2018-Aug-11 14:58N 33°08' E 034°28'4 8.1
2018-Aug-11 14:30N 33°12' E 034°29'4 8.0
2018-Aug-11 14:00N 33°16' E 034°29'4 8.0
2018-Aug-11 13:30N 33°20' E 034°29'4 7.9
2018-Aug-11 13:00N 33°24' E 034°29'  
Track history (hours):
 
Tides and Currents Weather Stations Pressure Air Temp Water Temp Dewpoint Dewpoint Depression Visibility Wind Speed Wind Dir Waves Ship Positions

Nuray Senkaya

Last reported at 2018-Aug-11 23:27 UTC. Time now 2018-Aug-19 15:20 UTC.
Position N 31°59' E 034°26'.

Length 109 m; draft 7.4 m.

Type: Cargo ship. MMSI: 271000926.

Date/timePositionNaut miles runAvg speedWind from/ knotsBaromVisibWave heightAir tempDewpointWater temp
2018-Aug-11 23:27N 31°59' E 034°26'3 7.9
2018-Aug-11 23:00N 32°03' E 034°25'4 8.0
2018-Aug-11 22:30N 32°06' E 034°23'6 8.0
2018-Aug-11 21:46N 32°12' E 034°22'2 8.3
2018-Aug-11 21:28N 32°14' E 034°22'17 8.5
2018-Aug-11 19:28N 32°31' E 034°24'6 8.2
2018-Aug-11 18:47N 32°36' E 034°27'2 8.5
2018-Aug-11 18:30N 32°39' E 034°27'4 8.5
2018-Aug-11 17:59N 32°43' E 034°27'4 8.5
2018-Aug-11 17:30N 32°47' E 034°27'4 8.3
2018-Aug-11 16:58N 32°52' E 034°28'7 8.5
2018-Aug-11 16:05N 32°59' E 034°28'1 8.5
2018-Aug-11 16:00N 32°60' E 034°28'4 8.3
2018-Aug-11 15:29N 33°04' E 034°28'4 8.1
2018-Aug-11 14:58N 33°08' E 034°28'4 8.1
2018-Aug-11 14:30N 33°12' E 034°29'4 8.0
2018-Aug-11 14:00N 33°16' E 034°29'4 8.0
2018-Aug-11 13:30N 33°20' E 034°29'4 7.9
2018-Aug-11 13:00N 33°24' E 034°29'  

Dump ship's entire track history